createdAt,value
2022-08-04T00:02:19.321Z,66.85
2022-08-04T00:05:05.985Z,66.63
2022-08-04T00:07:43.883Z,66.69
2022-08-04T00:10:16.269Z,64.33
2022-08-04T00:12:48.847Z,64.99
2022-08-04T00:15:17.166Z,63.62
2022-08-04T00:17:58.104Z,64.21
2022-08-04T00:20:29.187Z,63.69
2022-08-04T00:22:57.170Z,63.95
2022-08-04T00:25:24.931Z,64.48
2022-08-04T00:27:51.687Z,64.58
2022-08-04T00:30:18.252Z,63.31
2022-08-04T00:32:45.409Z,63.52
2022-08-04T00:35:15.667Z,63.67
2022-08-04T00:37:45.333Z,64.41
2022-08-04T00:40:49.450Z,64.28
2022-08-04T00:43:28.293Z,63.51
2022-08-04T00:46:22.221Z,63.58
2022-08-04T00:49:13.879Z,63.48
2022-08-04T00:51:40.379Z,63.78
2022-08-04T00:54:07.349Z,64.21
2022-08-04T00:57:00.019Z,63.36
2022-08-04T01:00:09.827Z,63.60
2022-08-04T01:02:52.493Z,63.44
2022-08-04T01:05:38.051Z,63.30
2022-08-04T01:08:41.761Z,62.65
2022-08-04T01:11:24.310Z,63.28
2022-08-04T01:14:20.269Z,63.99
2022-08-04T01:16:57.891Z,63.76
2022-08-04T01:19:45.548Z,62.91
2022-08-04T01:23:03.683Z,61.31
2022-08-04T01:26:01.197Z,61.77
2022-08-04T01:28:43.530Z,61.90
2022-08-04T01:31:30.986Z,62.75
2022-08-04T01:34:04.812Z,61.50
2022-08-04T01:36:38.063Z,61.05
2022-08-04T01:39:24.781Z,60.92
2022-08-04T01:41:58.227Z,60.87
2022-08-04T01:44:28.590Z,61.50
2022-08-04T01:46:55.291Z,61.45
2022-08-04T01:49:25.263Z,60.64
2022-08-04T01:51:53.002Z,60.74
2022-08-04T01:54:19.923Z,60.27
2022-08-04T01:56:50.873Z,60.26
2022-08-04T01:59:21.494Z,61.01
2022-08-04T02:01:48.574Z,61.58
2022-08-04T02:04:18.384Z,61.30
2022-08-04T02:06:59.658Z,60.37
2022-08-04T02:09:56.380Z,60.59
2022-08-04T02:13:05.193Z,60.09
2022-08-04T02:16:06.695Z,60.28
2022-08-04T02:18:57.652Z,60.69
2022-08-04T02:21:26.850Z,61.00
2022-08-04T02:24:15.068Z,60.24
2022-08-04T02:26:46.413Z,59.76
2022-08-04T02:29:40.846Z,59.79
2022-08-04T02:32:15.684Z,60.35
2022-08-04T02:35:06.459Z,59.52
2022-08-04T02:37:33.841Z,60.27
2022-08-04T02:40:03.730Z,60.52
2022-08-04T02:42:31.793Z,60.30
2022-08-04T02:45:00.946Z,59.50
2022-08-04T02:48:29.227Z,59.85
2022-08-04T02:50:28.791Z,60.23
2022-08-04T02:53:00.335Z,60.00
2022-08-04T02:55:28.961Z,59.62
2022-08-04T02:57:58.037Z,60.02
2022-08-04T03:00:25.667Z,60.88
2022-08-04T03:03:27.107Z,61.13
2022-08-04T03:06:25.466Z,61.11
2022-08-04T03:09:07.150Z,61.33
2022-08-04T03:12:03.198Z,62.91
2022-08-04T03:14:58.423Z,62.96
2022-08-04T03:17:33.787Z,62.82
2022-08-04T03:20:34.270Z,64.50
2022-08-04T03:23:29.366Z,64.50
2022-08-04T03:26:33.070Z,64.82
2022-08-04T03:29:38.435Z,64.24
2022-08-04T03:32:27.242Z,62.79
2022-08-04T03:35:08.418Z,62.39
2022-08-04T03:37:57.297Z,61.81
2022-08-04T03:40:54.122Z,62.02
2022-08-04T03:43:57.582Z,62.81
2022-08-04T03:46:25.975Z,63.01
2022-08-04T03:49:09.199Z,63.69
2022-08-04T03:52:25.476Z,62.71
2022-08-04T03:55:11.187Z,62.58
2022-08-04T03:57:57.196Z,62.71
2022-08-04T04:00:52.719Z,63.26
2022-08-04T04:03:47.860Z,63.47
2022-08-04T04:06:52.904Z,62.69
2022-08-04T04:09:54.817Z,62.54
2022-08-04T04:12:46.929Z,61.19
2022-08-04T04:15:50.056Z,61.11
2022-08-04T04:18:27.886Z,60.43
2022-08-04T04:21:26.480Z,60.11
2022-08-04T04:24:16.494Z,59.55
2022-08-04T04:26:54.907Z,59.80
2022-08-04T04:29:50.358Z,60.11
2022-08-04T04:32:37.252Z,60.07
2022-08-04T04:35:31.757Z,59.81
2022-08-04T04:38:25.951Z,59.80
2022-08-04T04:41:20.394Z,60.72
2022-08-04T04:44:14.603Z,60.32
2022-08-04T04:47:10.011Z,60.53
2022-08-04T04:49:51.306Z,60.82
2022-08-04T04:52:38.075Z,59.91
2022-08-04T04:55:16.055Z,59.88
2022-08-04T04:57:54.555Z,59.46
2022-08-04T05:00:26.194Z,59.19
2022-08-04T05:03:17.328Z,59.75
2022-08-04T05:06:16.439Z,59.29
2022-08-04T05:08:54.446Z,58.40
2022-08-04T05:11:57.978Z,58.75
2022-08-04T05:14:41.106Z,59.80
2022-08-04T05:17:27.598Z,58.54
2022-08-04T05:20:08.291Z,56.76
2022-08-04T05:22:47.773Z,54.80
2022-08-04T05:25:21.125Z,54.42
2022-08-04T05:27:58.961Z,53.72
2022-08-04T05:30:28.685Z,52.19
2022-08-04T05:33:18.939Z,50.63
2022-08-04T05:36:17.731Z,49.29
2022-08-04T05:38:42.395Z,48.72
2022-08-04T05:41:10.795Z,48.70
2022-08-04T05:43:40.456Z,48.04
2022-08-04T05:46:09.215Z,48.63
2022-08-04T05:48:37.305Z,48.23
2022-08-04T05:51:05.273Z,47.10
2022-08-04T05:53:33.033Z,46.45
2022-08-04T05:56:02.189Z,46.06
2022-08-04T05:58:30.820Z,45.53
2022-08-04T06:01:00.687Z,44.05
2022-08-04T06:03:30.777Z,42.96
2022-08-04T06:05:58.905Z,42.59
2022-08-04T06:08:25.703Z,42.54
2022-08-04T06:10:55.500Z,42.17
2022-08-04T06:13:47.463Z,41.85
2022-08-04T06:16:28.517Z,41.49
2022-08-04T06:20:00.270Z,41.08
2022-08-04T06:21:50.288Z,41.01
2022-08-04T06:24:23.564Z,40.20
2022-08-04T06:26:51.646Z,39.67
2022-08-04T06:29:33.702Z,38.94
2022-08-04T06:32:30.161Z,37.79
2022-08-04T06:34:55.572Z,37.85
2022-08-04T06:37:41.806Z,38.43
2022-08-04T06:40:30.847Z,37.95
2022-08-04T06:43:02.753Z,35.63
2022-08-04T06:45:30.017Z,34.73
2022-08-04T06:47:58.239Z,34.63
2022-08-04T06:51:32.266Z,35.34
2022-08-04T06:53:12.231Z,34.70
2022-08-04T06:55:40.466Z,34.34
2022-08-04T06:58:08.413Z,33.90
2022-08-04T07:00:38.681Z,33.89
2022-08-04T07:03:05.601Z,33.35
2022-08-04T07:05:32.312Z,33.21
2022-08-04T07:07:59.331Z,32.84
2022-08-04T07:10:30.528Z,32.77
2022-08-04T07:12:57.939Z,32.44
2022-08-04T07:15:25.695Z,31.72
2022-08-04T07:17:53.393Z,31.17
2022-08-04T07:20:33.977Z,31.29
2022-08-04T07:23:04.476Z,30.91
2022-08-04T07:26:00.614Z,31.06
2022-08-04T07:28:20.994Z,30.01
2022-08-04T07:30:49.555Z,29.79
2022-08-04T07:33:18.203Z,30.28
2022-08-04T07:36:09.390Z,29.94
2022-08-04T07:38:33.739Z,29.26
2022-08-04T07:41:35.267Z,29.91
2022-08-04T07:43:54.686Z,29.67
2022-08-04T07:46:21.640Z,29.61
2022-08-04T07:48:48.564Z,29.81
2022-08-04T07:51:16.843Z,29.92
2022-08-04T07:53:53.381Z,29.12
2022-08-04T07:56:22.969Z,30.28
2022-08-04T07:58:50.353Z,30.64
2022-08-04T08:01:18.962Z,31.27
2022-08-04T08:03:46.603Z,31.07
2022-08-04T08:06:31.156Z,31.98
2022-08-04T08:09:12.091Z,33.61
2022-08-04T08:12:36.284Z,34.54
2022-08-04T08:14:35.549Z,34.96
2022-08-04T08:17:03.240Z,35.13
2022-08-04T08:19:34.549Z,35.11
2022-08-04T08:22:02.340Z,35.02
2022-08-04T08:24:35.903Z,35.05
2022-08-04T08:27:06.769Z,34.88
2022-08-04T08:29:35.376Z,34.69
2022-08-04T08:32:08.142Z,32.46
2022-08-04T08:34:36.021Z,33.04
2022-08-04T08:37:05.378Z,32.70
2022-08-04T08:39:40.517Z,32.16
2022-08-04T08:42:16.799Z,32.83
2022-08-04T08:45:17.934Z,32.66
2022-08-04T08:48:06.093Z,30.73
2022-08-04T08:50:52.542Z,31.45
2022-08-04T08:53:51.098Z,32.09
2022-08-04T08:56:17.554Z,31.99
2022-08-04T08:59:03.198Z,32.37
2022-08-04T09:01:59.559Z,32.29
2022-08-04T09:04:53.952Z,32.04
2022-08-04T09:07:49.018Z,32.42
2022-08-04T09:10:48.874Z,32.90
2022-08-04T09:13:36.787Z,33.11
2022-08-04T09:16:16.265Z,34.32
2022-08-04T09:19:37.531Z,33.47
2022-08-04T09:22:10.705Z,32.84
2022-08-04T09:24:54.073Z,31.89
2022-08-04T09:27:28.845Z,32.71
2022-08-04T09:30:05.375Z,31.82
2022-08-04T09:32:38.004Z,30.86
2022-08-04T09:35:22.394Z,31.16
2022-08-04T09:38:02.131Z,30.88
2022-08-04T09:40:53.808Z,30.31
2022-08-04T09:44:42.100Z,31.47
2022-08-04T09:46:29.145Z,30.34
2022-08-04T09:49:04.996Z,29.49
2022-08-04T09:51:57.191Z,30.81
2022-08-04T09:54:52.786Z,29.08
2022-08-04T09:57:38.954Z,29.57
2022-08-04T10:00:09.182Z,29.98
2022-08-04T10:02:51.363Z,29.57
2022-08-04T10:05:27.616Z,28.84
2022-08-04T10:08:16.586Z,29.28
2022-08-04T10:11:12.386Z,29.21
2022-08-04T10:13:56.574Z,29.03
2022-08-04T10:16:58.530Z,28.46
2022-08-04T10:19:32.401Z,28.72
2022-08-04T10:22:28.715Z,27.04
2022-08-04T10:26:05.707Z,29.02
2022-08-04T10:28:24.405Z,27.92
2022-08-04T10:30:55.937Z,27.45
2022-08-04T10:33:30.550Z,27.78
2022-08-04T10:36:04.831Z,29.01
2022-08-04T10:38:37.513Z,26.64
2022-08-04T10:41:12.301Z,26.85
2022-08-04T10:43:58.917Z,27.97
2022-08-04T10:46:37.446Z,28.14
2022-08-04T10:49:09.716Z,27.34
2022-08-04T10:51:58.466Z,27.40
2022-08-04T10:54:48.001Z,26.86
2022-08-04T10:57:21.130Z,25.97
2022-08-04T11:00:05.182Z,27.03
2022-08-04T11:02:39.989Z,27.08
2022-08-04T11:05:25.792Z,27.54
2022-08-04T11:07:59.597Z,27.24
2022-08-04T11:10:32.284Z,27.70
2022-08-04T11:13:04.833Z,26.64
2022-08-04T11:15:40.198Z,26.36
2022-08-04T11:18:16.178Z,26.28
2022-08-04T11:20:52.970Z,27.19
2022-08-04T11:23:26.524Z,27.34
2022-08-04T11:26:00.739Z,26.69
2022-08-04T11:29:03.270Z,27.41
2022-08-04T11:31:39.835Z,28.42
2022-08-04T11:34:20.717Z,27.05
2022-08-04T11:37:00.359Z,27.32
2022-08-04T11:39:36.287Z,29.13
2022-08-04T11:42:27.100Z,27.90
2022-08-04T11:45:06.302Z,27.72
2022-08-04T11:47:41.593Z,27.65
2022-08-04T11:50:21.043Z,28.53
2022-08-04T11:52:48.907Z,28.38
2022-08-04T11:55:17.901Z,27.51
2022-08-04T11:57:44.978Z,27.72
2022-08-04T12:00:14.823Z,28.03
2022-08-04T12:02:59.083Z,28.61
2022-08-04T12:05:41.522Z,28.85
2022-08-04T12:08:36.367Z,27.97
2022-08-04T12:11:21.412Z,28.15
2022-08-04T12:14:17.223Z,29.21
2022-08-04T12:17:04.446Z,29.15
2022-08-04T12:20:04.658Z,27.84
2022-08-04T12:22:40.802Z,27.99
2022-08-04T12:25:11.854Z,28.95
2022-08-04T12:27:43.831Z,28.30
2022-08-04T12:30:58.211Z,28.38
2022-08-04T12:33:10.671Z,29.13
2022-08-04T12:36:10.317Z,29.00
2022-08-04T12:38:33.429Z,27.67
2022-08-04T12:41:04.986Z,27.98
2022-08-04T12:43:47.149Z,28.19
2022-08-04T12:46:23.561Z,28.68
2022-08-04T12:48:51.238Z,27.96
2022-08-04T12:51:30.933Z,27.80
2022-08-04T12:54:07.234Z,26.70
2022-08-04T12:56:34.685Z,26.49
2022-08-04T12:59:13.014Z,27.29
2022-08-04T13:02:07.883Z,27.49
2022-08-04T13:04:34.748Z,28.67
2022-08-04T13:07:12.798Z,28.62
2022-08-04T13:09:41.155Z,27.93
2022-08-04T13:12:32.417Z,28.09
2022-08-04T13:15:18.506Z,28.84
2022-08-04T13:18:03.938Z,28.85
2022-08-04T13:20:39.164Z,27.37
2022-08-04T13:23:11.715Z,28.28
2022-08-04T13:26:43.390Z,27.52
2022-08-04T13:28:34.362Z,28.39
2022-08-04T13:31:05.464Z,28.91
2022-08-04T13:33:35.355Z,28.55
2022-08-04T13:36:02.747Z,28.42
2022-08-04T13:38:31.249Z,27.83
2022-08-04T13:41:02.871Z,27.42
2022-08-04T13:44:15.495Z,28.83
2022-08-04T13:46:28.028Z,27.28
2022-08-04T13:49:31.247Z,28.61
2022-08-04T13:51:58.013Z,28.02
2022-08-04T13:54:46.876Z,27.04
2022-08-04T13:57:27.759Z,29.06
2022-08-04T13:59:59.976Z,28.27
2022-08-04T14:02:41.528Z,28.62
2022-08-04T14:05:27.011Z,27.91
2022-08-04T14:08:06.583Z,29.30
2022-08-04T14:10:34.717Z,28.68
2022-08-04T14:13:04.243Z,28.20
2022-08-04T14:16:01.206Z,28.07
2022-08-04T14:18:32.228Z,28.24
2022-08-04T14:21:11.285Z,28.20
2022-08-04T14:23:54.008Z,29.07
2022-08-04T14:26:31.579Z,29.27
2022-08-04T14:29:28.313Z,29.36
2022-08-04T14:32:05.529Z,29.35
2022-08-04T14:34:39.314Z,29.33
2022-08-04T14:37:16.267Z,29.44
2022-08-04T14:40:08.964Z,29.38
2022-08-04T14:42:55.401Z,29.13
2022-08-04T14:45:37.011Z,29.68
2022-08-04T14:48:11.653Z,29.09
2022-08-04T14:50:43.861Z,29.43
2022-08-04T14:53:30.778Z,29.77
2022-08-04T14:56:01.066Z,29.48
2022-08-04T14:58:38.839Z,29.87
2022-08-04T15:01:12.360Z,30.38
2022-08-04T15:03:52.081Z,33.13
2022-08-04T15:06:23.222Z,36.49
2022-08-04T15:08:51.718Z,37.95
2022-08-04T15:11:23.660Z,38.69
2022-08-04T15:13:55.652Z,39.83
2022-08-04T15:16:24.346Z,42.20
2022-08-04T15:18:54.878Z,43.58
2022-08-04T15:21:28.098Z,43.53
2022-08-04T15:23:59.017Z,44.14
2022-08-04T15:26:33.611Z,44.70
2022-08-04T15:29:10.989Z,45.71
2022-08-04T15:32:05.339Z,46.61
2022-08-04T15:34:43.113Z,47.97
2022-08-04T15:37:10.823Z,50.23
2022-08-04T15:40:09.476Z,49.35
2022-08-04T15:42:43.877Z,49.13
2022-08-04T15:46:02.048Z,48.73
2022-08-04T15:48:12.027Z,48.67
2022-08-04T15:51:02.868Z,48.83
2022-08-04T15:54:01.361Z,48.30
2022-08-04T15:56:26.395Z,48.79
2022-08-04T15:58:57.575Z,48.72
2022-08-04T16:01:24.814Z,48.63
2022-08-04T16:03:58.247Z,48.32
2022-08-04T16:06:29.583Z,47.90
2022-08-04T16:09:03.852Z,47.32
2022-08-04T16:11:32.541Z,47.40
2022-08-04T16:13:59.751Z,46.85
2022-08-04T16:16:27.818Z,46.01
2022-08-04T16:18:54.927Z,45.81
2022-08-04T16:21:24.243Z,45.75
2022-08-04T16:24:05.812Z,46.32
2022-08-04T16:26:45.440Z,46.00
2022-08-04T16:29:38.223Z,45.59
2022-08-04T16:32:04.766Z,45.27
2022-08-04T16:34:47.898Z,44.76
2022-08-04T16:37:19.087Z,45.47
2022-08-04T16:39:51.304Z,46.25
2022-08-04T16:42:27.487Z,46.55
2022-08-04T16:45:09.127Z,48.00
2022-08-04T16:47:47.519Z,48.34
2022-08-04T16:50:19.630Z,48.73
2022-08-04T16:52:51.595Z,47.96
2022-08-04T16:55:19.959Z,48.37
2022-08-04T16:57:47.301Z,48.09
2022-08-04T17:00:14.595Z,48.74
2022-08-04T17:02:41.567Z,49.86
2022-08-04T17:05:39.058Z,51.25
2022-08-04T17:10:55.805Z,51.39
2022-08-04T17:14:02.531Z,51.33
2022-08-04T17:16:18.252Z,51.88
2022-08-04T17:18:48.168Z,51.89
2022-08-04T17:21:22.631Z,51.11
2022-08-04T17:24:16.545Z,52.03
2022-08-04T17:26:45.261Z,50.80
2022-08-04T17:29:20.051Z,50.23
2022-08-04T17:31:47.011Z,51.07
2022-08-04T17:34:19.502Z,51.66
2022-08-04T17:36:48.073Z,52.67
2022-08-04T17:39:23.242Z,52.31
2022-08-04T17:41:56.075Z,50.90
2022-08-04T17:44:38.431Z,50.87
2022-08-04T17:47:16.761Z,50.24
2022-08-04T17:49:52.533Z,49.21
2022-08-04T17:52:41.432Z,48.72
2022-08-04T17:55:16.416Z,48.50
2022-08-04T17:57:52.628Z,47.87
2022-08-04T18:00:20.050Z,48.24
2022-08-04T18:02:54.463Z,48.46
2022-08-04T18:05:50.278Z,48.86
2022-08-04T18:08:39.659Z,49.02
2022-08-04T18:11:03.566Z,49.66
2022-08-04T18:13:31.257Z,49.37
2022-08-04T18:16:21.745Z,49.99
2022-08-04T18:19:10.244Z,49.46
2022-08-04T18:21:46.730Z,49.39
2022-08-04T18:24:34.773Z,49.71
2022-08-04T18:27:10.110Z,49.99
2022-08-04T18:29:41.222Z,49.77
2022-08-04T18:32:33.003Z,49.31
2022-08-04T18:35:05.713Z,49.30
2022-08-04T18:38:05.801Z,50.84
2022-08-04T18:40:34.311Z,50.67
2022-08-04T18:43:08.611Z,50.55
2022-08-04T18:45:41.142Z,51.14
2022-08-04T18:48:17.912Z,51.14
2022-08-04T18:51:09.693Z,50.54
2022-08-04T18:53:35.797Z,51.32
2022-08-04T18:56:06.098Z,50.90
2022-08-04T18:58:32.971Z,51.40
2022-08-04T19:01:01.113Z,52.33
2022-08-04T19:03:30.786Z,52.48
2022-08-04T19:06:02.312Z,52.16
2022-08-04T19:11:53.372Z,51.67
2022-08-04T19:14:05.095Z,51.28
2022-08-04T19:16:33.991Z,50.50
2022-08-04T19:19:05.618Z,50.89
2022-08-04T19:21:59.958Z,51.30
2022-08-04T19:27:08.682Z,51.63
2022-08-04T19:29:41.035Z,52.29
2022-08-04T19:32:13.875Z,51.97
2022-08-04T19:34:42.493Z,53.54
2022-08-04T19:37:20.369Z,53.65
2022-08-04T19:40:00.672Z,54.43
2022-08-04T19:42:27.291Z,54.46
2022-08-04T19:44:53.812Z,54.92
2022-08-04T19:48:21.732Z,54.68
2022-08-04T19:52:54.398Z,54.99
2022-08-04T19:55:37.393Z,55.11
2022-08-04T19:58:08.511Z,55.26
2022-08-04T20:00:37.415Z,55.56
2022-08-04T20:03:11.581Z,55.29
2022-08-04T20:05:53.127Z,55.40
2022-08-04T20:08:21.410Z,55.66
2022-08-04T20:10:51.459Z,54.87
2022-08-04T20:13:19.814Z,54.24
2022-08-04T20:18:36.505Z,53.20
2022-08-04T20:21:36.589Z,53.43
2022-08-04T20:24:38.909Z,53.86
2022-08-04T20:26:54.061Z,53.16
2022-08-04T20:29:40.300Z,52.31
2022-08-04T20:32:08.778Z,53.15
2022-08-04T20:34:37.131Z,53.44
2022-08-04T20:37:03.910Z,53.73
2022-08-04T20:39:30.770Z,54.13
2022-08-04T20:41:57.928Z,55.31
2022-08-04T20:44:24.549Z,55.67
2022-08-04T20:46:51.114Z,54.98
2022-08-04T20:49:17.797Z,55.33
2022-08-04T20:51:44.375Z,55.12
2022-08-04T20:54:16.885Z,55.60
2022-08-04T20:56:51.118Z,54.92
2022-08-04T20:59:18.923Z,55.97
2022-08-04T21:01:49.024Z,56.59
2022-08-04T21:04:32.244Z,56.96
2022-08-04T21:07:07.603Z,56.49
2022-08-04T21:09:38.337Z,56.42
2022-08-04T21:12:11.008Z,56.37
2022-08-04T21:15:01.147Z,56.34
2022-08-04T21:17:59.523Z,56.75
2022-08-04T21:20:27.654Z,56.83
2022-08-04T21:22:54.989Z,56.50
2022-08-04T21:25:22.195Z,56.11
2022-08-04T21:27:48.785Z,57.08
2022-08-04T21:30:23.915Z,56.47
2022-08-04T21:32:52.071Z,56.56
2022-08-04T21:35:19.015Z,58.27
2022-08-04T21:37:58.225Z,58.63
2022-08-04T21:40:36.763Z,59.02
2022-08-04T21:43:05.782Z,59.20
2022-08-04T21:45:36.251Z,57.81
2022-08-04T21:48:04.748Z,57.95
2022-08-04T21:50:31.376Z,57.49
2022-08-04T21:52:58.962Z,56.83
2022-08-04T21:56:04.366Z,57.23
2022-08-04T21:58:13.353Z,57.18
2022-08-04T22:00:40.717Z,57.66
2022-08-04T22:03:11.335Z,57.32
2022-08-04T22:05:55.322Z,57.89
2022-08-04T22:08:23.434Z,59.44
2022-08-04T22:10:50.286Z,59.25
2022-08-04T22:13:22.660Z,59.23
2022-08-04T22:16:03.701Z,59.63
2022-08-04T22:18:32.382Z,60.32
2022-08-04T22:21:04.457Z,60.00
2022-08-04T22:23:44.904Z,59.87
2022-08-04T22:26:26.897Z,59.13
2022-08-04T22:28:56.193Z,59.32
2022-08-04T22:31:24.902Z,58.95
2022-08-04T22:33:55.298Z,59.36
2022-08-04T22:36:22.713Z,60.12
2022-08-04T22:39:00.276Z,59.93
2022-08-04T22:41:34.220Z,59.43
2022-08-04T22:44:15.938Z,59.40
2022-08-04T22:46:43.068Z,59.72
2022-08-04T22:49:09.624Z,59.38
2022-08-04T22:51:36.188Z,58.86
2022-08-04T22:54:02.754Z,58.56
2022-08-04T22:56:39.282Z,60.13
2022-08-04T22:59:10.841Z,60.19
2022-08-04T23:02:00.121Z,60.03
2022-08-04T23:04:25.633Z,60.79
2022-08-04T23:06:54.715Z,61.49
2022-08-04T23:09:26.973Z,61.23
2022-08-04T23:12:24.387Z,60.83
2022-08-04T23:14:54.985Z,61.08
2022-08-04T23:17:22.308Z,60.63
2022-08-04T23:19:58.072Z,61.57
2022-08-04T23:22:36.929Z,61.21
2022-08-04T23:25:04.628Z,61.94
2022-08-04T23:27:40.246Z,62.43
2022-08-04T23:30:11.247Z,62.25
2022-08-04T23:32:38.119Z,62.35
2022-08-04T23:35:05.108Z,63.45
2022-08-04T23:37:36.688Z,62.59
2022-08-04T23:40:32.763Z,63.83
2022-08-04T23:43:00.824Z,63.15
2022-08-04T23:46:04.229Z,62.62
2022-08-04T23:48:19.405Z,64.02
2022-08-04T23:50:47.798Z,64.77
2022-08-04T23:53:18.461Z,65.08
2022-08-04T23:55:49.176Z,65.18
2022-08-04T23:58:18.778Z,64.50
